createdAt,value
2022-11-16T00:00:24.335Z,6.41
2022-11-16T00:02:50.583Z,6.06
2022-11-16T00:05:16.814Z,5.79
2022-11-16T00:07:43.065Z,5.12
2022-11-16T00:10:09.311Z,4.43
2022-11-16T00:12:35.551Z,3.80
2022-11-16T00:15:01.792Z,2.73
2022-11-16T00:17:28.050Z,1.73
2022-11-16T00:19:54.291Z,1.99
2022-11-16T00:22:20.542Z,1.27
2022-11-16T00:24:46.773Z,1.00
2022-11-16T00:27:13.010Z,0.89
2022-11-16T00:29:39.241Z,1.61
2022-11-16T00:32:05.478Z,1.14
2022-11-16T00:34:31.703Z,0.90
2022-11-16T00:36:57.944Z,1.39
2022-11-16T00:39:24.190Z,2.21
2022-11-16T00:41:50.433Z,2.62
2022-11-16T00:44:16.686Z,2.79
2022-11-16T00:46:42.923Z,3.02
2022-11-16T00:49:09.166Z,3.08
2022-11-16T00:51:35.409Z,2.77
2022-11-16T00:54:01.655Z,2.38
2022-11-16T00:56:27.894Z,2.27
2022-11-16T00:58:54.139Z,2.40
2022-11-16T01:01:20.396Z,2.38
2022-11-16T01:03:46.680Z,2.30
2022-11-16T01:06:12.928Z,2.23
2022-11-16T01:08:39.167Z,2.26
2022-11-16T01:11:05.494Z,1.77
2022-11-16T01:13:31.721Z,1.24
2022-11-16T01:15:57.950Z,1.01
2022-11-16T01:18:24.186Z,0.82
2022-11-16T01:20:50.413Z,0.73
2022-11-16T01:23:16.649Z,0.73
2022-11-16T01:25:42.893Z,0.70
2022-11-16T01:28:09.116Z,0.65
2022-11-16T01:30:35.370Z,0.53
2022-11-16T01:33:01.605Z,0.56
2022-11-16T01:35:27.863Z,0.42
2022-11-16T01:37:54.124Z,0.42
2022-11-16T01:40:20.355Z,0.38
2022-11-16T01:42:46.589Z,0.46
2022-11-16T01:45:12.809Z,0.37
2022-11-16T01:47:39.075Z,0.41
2022-11-16T01:50:05.324Z,0.37
2022-11-16T01:52:31.559Z,0.42
2022-11-16T01:54:57.794Z,0.35
2022-11-16T01:57:24.030Z,0.35
2022-11-16T01:59:50.266Z,0.38
2022-11-16T02:02:16.486Z,0.36
2022-11-16T02:04:42.810Z,0.41
2022-11-16T02:07:09.089Z,0.41
2022-11-16T02:09:35.333Z,0.39
2022-11-16T02:12:01.581Z,0.48
2022-11-16T02:14:27.822Z,0.53
2022-11-16T02:16:54.058Z,0.50
2022-11-16T02:19:20.281Z,0.40
2022-11-16T02:21:46.914Z,0.61
2022-11-16T02:24:13.150Z,0.89
2022-11-16T02:26:39.388Z,1.33
2022-11-16T02:29:05.640Z,3.01
2022-11-16T02:31:31.892Z,4.46
2022-11-16T02:33:58.144Z,5.21
2022-11-16T02:36:24.392Z,5.94
2022-11-16T02:38:50.637Z,4.82
2022-11-16T02:41:16.876Z,3.95
2022-11-16T02:43:43.119Z,3.24
2022-11-16T02:46:09.358Z,2.66
2022-11-16T02:48:36.021Z,2.30
2022-11-16T02:51:02.420Z,2.19
2022-11-16T02:53:28.664Z,2.06
2022-11-16T02:55:54.912Z,1.51
2022-11-16T02:58:21.150Z,1.42
2022-11-16T03:00:47.411Z,1.26
2022-11-16T03:03:13.728Z,1.08
2022-11-16T03:05:39.954Z,1.10
2022-11-16T03:08:06.192Z,1.17
2022-11-16T03:10:32.422Z,1.54
2022-11-16T03:12:58.717Z,1.75
2022-11-16T03:15:24.955Z,2.09
2022-11-16T03:17:51.190Z,2.13
2022-11-16T03:20:17.425Z,2.05
2022-11-16T03:22:43.664Z,2.43
2022-11-16T03:25:09.912Z,2.28
2022-11-16T03:27:36.152Z,2.19
2022-11-16T03:30:02.408Z,2.25
2022-11-16T03:32:28.662Z,2.16
2022-11-16T03:34:54.900Z,1.93
2022-11-16T03:37:21.146Z,1.94
2022-11-16T03:39:47.398Z,1.62
2022-11-16T03:42:13.640Z,1.60
2022-11-16T03:44:39.990Z,1.80
2022-11-16T03:47:06.240Z,1.63
2022-11-16T03:49:32.483Z,1.68
2022-11-16T03:51:58.736Z,1.63
2022-11-16T03:54:24.982Z,1.87
2022-11-16T03:56:51.227Z,1.85
2022-11-16T03:59:17.470Z,1.89
2022-11-16T04:01:45.042Z,1.78
2022-11-16T04:04:11.391Z,1.82
2022-11-16T04:06:37.620Z,2.03
2022-11-16T04:09:03.877Z,2.08
2022-11-16T04:11:30.127Z,1.84
2022-11-16T04:13:56.383Z,1.79
2022-11-16T04:16:22.620Z,1.83
2022-11-16T04:18:48.980Z,1.92
2022-11-16T04:21:15.219Z,1.87
2022-11-16T04:23:41.457Z,2.08
2022-11-16T04:26:07.708Z,2.09
2022-11-16T04:28:34.294Z,2.12
2022-11-16T04:31:00.672Z,2.01
2022-11-16T04:33:26.926Z,2.31
2022-11-16T04:35:53.166Z,2.25
2022-11-16T04:38:19.403Z,2.12
2022-11-16T04:40:45.650Z,2.08
2022-11-16T04:43:11.890Z,2.21
2022-11-16T04:45:38.128Z,2.13
2022-11-16T04:48:04.373Z,1.96
2022-11-16T04:50:30.712Z,2.00
2022-11-16T04:52:57.078Z,1.93
2022-11-16T04:55:23.324Z,1.94
2022-11-16T04:57:49.563Z,1.85
2022-11-16T05:00:15.833Z,1.80
2022-11-16T05:02:42.068Z,1.83
2022-11-16T05:05:08.309Z,1.74
2022-11-16T05:07:34.612Z,1.93
2022-11-16T05:10:00.880Z,1.70
2022-11-16T05:12:27.123Z,1.62
2022-11-16T05:14:53.362Z,1.57
2022-11-16T05:17:19.599Z,1.57
2022-11-16T05:19:45.836Z,1.51
2022-11-16T05:22:12.091Z,1.53
2022-11-16T05:24:38.327Z,1.49
2022-11-16T05:27:04.553Z,1.48
2022-11-16T05:29:30.787Z,1.24
2022-11-16T05:31:57.015Z,1.02
2022-11-16T05:34:23.245Z,1.01
2022-11-16T05:36:49.473Z,0.85
2022-11-16T05:39:15.807Z,0.77
2022-11-16T05:41:42.036Z,0.91
2022-11-16T05:44:08.277Z,1.00
2022-11-16T05:46:34.510Z,0.96
2022-11-16T05:49:00.749Z,0.97
2022-11-16T05:51:27.000Z,0.91
2022-11-16T05:53:53.246Z,1.01
2022-11-16T05:56:19.559Z,0.91
2022-11-16T05:58:45.849Z,0.87
2022-11-16T06:01:12.082Z,0.87
2022-11-16T06:03:38.305Z,0.91
2022-11-16T06:06:04.600Z,0.91
2022-11-16T06:08:30.986Z,0.85
2022-11-16T06:10:57.397Z,0.90
2022-11-16T06:13:23.639Z,0.89
2022-11-16T06:15:55.309Z,0.85
2022-11-16T06:18:21.549Z,0.92
2022-11-16T06:20:47.811Z,1.09
2022-11-16T06:23:14.054Z,1.00
2022-11-16T06:25:40.408Z,1.16
2022-11-16T06:28:08.080Z,0.98
2022-11-16T06:30:34.666Z,0.91
2022-11-16T06:33:00.909Z,1.05
2022-11-16T06:35:27.144Z,1.24
2022-11-16T06:37:53.373Z,1.11
2022-11-16T06:40:19.603Z,0.98
2022-11-16T06:42:45.844Z,1.01
2022-11-16T06:45:12.120Z,0.95
2022-11-16T06:47:38.373Z,1.29
2022-11-16T06:50:04.618Z,1.14
2022-11-16T06:52:30.846Z,0.94
2022-11-16T06:54:57.075Z,0.72
2022-11-16T06:57:23.317Z,0.79
2022-11-16T06:59:49.552Z,0.73
2022-11-16T07:02:15.853Z,1.01
2022-11-16T07:04:42.106Z,0.83
2022-11-16T07:07:08.384Z,0.90
2022-11-16T07:09:34.621Z,1.05
2022-11-16T07:12:00.866Z,1.02
2022-11-16T07:14:27.104Z,0.83
2022-11-16T07:16:59.043Z,0.88
2022-11-16T07:19:26.084Z,0.80
2022-11-16T07:21:52.323Z,0.85
2022-11-16T07:24:18.558Z,0.73
2022-11-16T07:26:44.791Z,0.95
2022-11-16T07:29:11.033Z,1.01
2022-11-16T07:31:37.262Z,1.00
2022-11-16T07:34:03.502Z,0.88
2022-11-16T07:36:29.735Z,0.93
2022-11-16T07:38:55.967Z,1.02
2022-11-16T07:41:22.203Z,1.06
2022-11-16T07:43:52.766Z,0.92
2022-11-16T07:46:45.385Z,0.82
2022-11-16T07:49:10.873Z,0.73
2022-11-16T07:51:37.675Z,0.77
2022-11-16T07:54:03.928Z,0.75
2022-11-16T07:56:30.443Z,1.05
2022-11-16T07:58:56.673Z,1.19
2022-11-16T08:01:22.934Z,1.06
2022-11-16T08:03:49.209Z,1.10
2022-11-16T08:06:15.449Z,1.00
2022-11-16T08:08:41.690Z,1.00
2022-11-16T08:11:07.932Z,1.07
2022-11-16T08:13:34.225Z,0.92
2022-11-16T08:16:00.462Z,0.96
2022-11-16T08:18:26.686Z,0.96
2022-11-16T08:20:52.930Z,1.02
2022-11-16T08:23:19.170Z,1.00
2022-11-16T08:25:45.403Z,1.04
2022-11-16T08:28:11.648Z,1.03
2022-11-16T08:30:37.887Z,1.11
2022-11-16T08:33:04.119Z,1.19
2022-11-16T08:35:30.351Z,1.13
2022-11-16T08:37:56.598Z,1.07
2022-11-16T08:40:22.837Z,1.26
2022-11-16T08:42:49.080Z,1.12
2022-11-16T08:45:15.319Z,1.22
2022-11-16T08:47:41.572Z,1.22
2022-11-16T08:50:07.835Z,1.51
2022-11-16T08:52:34.107Z,1.17
2022-11-16T08:55:00.343Z,1.10
2022-11-16T08:57:26.589Z,1.14
2022-11-16T08:59:52.823Z,1.11
2022-11-16T09:02:19.049Z,1.13
2022-11-16T09:04:45.283Z,1.09
2022-11-16T09:07:11.582Z,0.95
2022-11-16T09:09:37.876Z,0.96
2022-11-16T09:12:04.131Z,0.99
2022-11-16T09:14:30.373Z,0.95
2022-11-16T09:16:56.607Z,0.91
2022-11-16T09:19:22.845Z,1.10
2022-11-16T09:21:49.078Z,0.94
2022-11-16T09:24:15.314Z,1.03
2022-11-16T09:26:41.910Z,0.85
2022-11-16T09:29:08.153Z,0.88
2022-11-16T09:31:34.389Z,0.95
2022-11-16T09:34:00.626Z,0.80
2022-11-16T09:36:26.862Z,1.07
2022-11-16T09:41:39.314Z,1.12
2022-11-16T09:44:05.543Z,1.14
2022-11-16T09:46:31.767Z,1.00
2022-11-16T09:48:58.007Z,1.01
2022-11-16T09:51:24.246Z,1.03
2022-11-16T09:53:50.506Z,1.12
2022-11-16T09:56:21.859Z,1.07
2022-11-16T09:58:48.621Z,0.84
2022-11-16T10:01:14.929Z,0.86
2022-11-16T10:03:41.201Z,1.08
2022-11-16T10:06:07.476Z,0.95
2022-11-16T10:08:33.918Z,0.81
2022-11-16T10:11:00.319Z,0.92
2022-11-16T10:13:26.566Z,0.69
2022-11-16T10:15:52.818Z,0.79
2022-11-16T10:18:19.060Z,0.79
2022-11-16T10:20:45.303Z,0.79
2022-11-16T10:23:11.537Z,0.87
2022-11-16T10:25:37.775Z,0.78
2022-11-16T10:28:04.012Z,0.79
2022-11-16T10:30:30.243Z,0.77
2022-11-16T10:32:56.512Z,0.86
2022-11-16T10:35:22.777Z,0.79
2022-11-16T10:37:49.002Z,0.74
2022-11-16T10:40:15.243Z,0.69
2022-11-16T10:42:41.487Z,0.74
2022-11-16T10:45:07.826Z,0.89
2022-11-16T10:47:34.207Z,0.71
2022-11-16T10:50:00.542Z,0.82
2022-11-16T10:52:26.803Z,0.76
2022-11-16T10:54:53.092Z,0.83
2022-11-16T10:57:19.338Z,0.84
2022-11-16T10:59:45.579Z,0.93
2022-11-16T11:02:11.859Z,0.95
2022-11-16T11:04:38.094Z,1.12
2022-11-16T11:07:04.453Z,1.00
2022-11-16T11:09:30.707Z,1.13
2022-11-16T11:11:56.936Z,1.17
2022-11-16T11:14:23.176Z,1.09
2022-11-16T11:16:49.411Z,1.03
2022-11-16T11:19:15.667Z,0.97
2022-11-16T11:21:41.898Z,0.99
2022-11-16T11:24:42.154Z,0.75
2022-11-16T11:26:54.348Z,0.91
2022-11-16T11:29:20.570Z,0.80
2022-11-16T11:31:46.798Z,0.71
2022-11-16T11:34:13.063Z,0.84
2022-11-16T11:36:39.316Z,0.82
2022-11-16T11:39:05.619Z,0.65
2022-11-16T11:41:31.883Z,0.69
2022-11-16T11:43:58.138Z,0.68
2022-11-16T11:46:34.527Z,0.63
2022-11-16T11:49:10.599Z,0.69
2022-11-16T11:51:36.836Z,0.78
2022-11-16T11:54:03.107Z,0.84
2022-11-16T11:56:29.477Z,0.75
2022-11-16T11:58:55.757Z,0.76
2022-11-16T12:01:25.281Z,0.84
2022-11-16T12:03:51.923Z,0.77
2022-11-16T12:06:18.157Z,0.80
2022-11-16T12:08:44.400Z,0.78
2022-11-16T12:11:10.734Z,0.67
2022-11-16T12:13:37.322Z,0.76
2022-11-16T12:16:03.725Z,0.73
2022-11-16T12:18:29.969Z,0.85
2022-11-16T12:20:56.260Z,0.82
2022-11-16T12:23:22.499Z,0.72
2022-11-16T12:25:48.766Z,0.85
2022-11-16T12:28:15.008Z,0.71
2022-11-16T12:30:41.230Z,0.98
2022-11-16T12:33:07.562Z,0.83
2022-11-16T12:35:33.801Z,0.83
2022-11-16T12:38:00.035Z,0.93
2022-11-16T12:40:26.275Z,0.84
2022-11-16T12:42:52.510Z,0.77
2022-11-16T12:45:18.769Z,0.90
2022-11-16T12:47:45.053Z,0.84
2022-11-16T12:50:11.397Z,0.83
2022-11-16T12:52:37.673Z,0.69
2022-11-16T12:55:25.415Z,0.76
2022-11-16T12:57:50.119Z,0.78
2022-11-16T13:00:16.362Z,0.80
2022-11-16T13:02:42.607Z,0.84
2022-11-16T13:05:08.839Z,0.81
2022-11-16T13:07:35.115Z,0.81
2022-11-16T13:10:01.377Z,0.69
2022-11-16T13:12:27.613Z,0.88
2022-11-16T13:14:53.866Z,1.01
2022-11-16T13:17:20.093Z,0.86
2022-11-16T13:19:46.322Z,1.00
2022-11-16T13:22:12.569Z,1.00
2022-11-16T13:24:38.824Z,1.01
2022-11-16T13:27:05.052Z,0.97
2022-11-16T13:29:31.285Z,0.99
2022-11-16T13:31:57.517Z,0.93
2022-11-16T13:34:23.769Z,0.87
2022-11-16T13:36:50.125Z,0.84
2022-11-16T13:39:21.943Z,0.95
2022-11-16T13:41:48.720Z,0.92
2022-11-16T13:44:14.950Z,0.82
2022-11-16T13:46:55.221Z,0.95
2022-11-16T13:49:22.299Z,0.69
2022-11-16T13:51:48.538Z,0.88
2022-11-16T13:57:00.997Z,0.85
2022-11-16T13:59:27.449Z,0.72
2022-11-16T14:01:53.687Z,0.72
2022-11-16T14:04:19.914Z,0.85
2022-11-16T14:06:46.159Z,0.68
2022-11-16T14:09:12.386Z,0.57
2022-11-16T14:11:38.624Z,0.61
2022-11-16T14:14:04.875Z,0.74
2022-11-16T14:16:31.105Z,0.81
2022-11-16T14:18:57.353Z,0.70
2022-11-16T14:21:23.578Z,0.76
2022-11-16T14:23:49.814Z,0.94
2022-11-16T14:26:16.057Z,0.80
2022-11-16T14:28:42.289Z,0.83
2022-11-16T14:31:08.526Z,0.76
2022-11-16T14:33:35.073Z,0.79
2022-11-16T14:36:01.522Z,0.87
2022-11-16T14:38:27.770Z,0.84
2022-11-16T14:40:59.113Z,0.78
2022-11-16T14:43:26.027Z,0.75
2022-11-16T14:45:52.264Z,0.87
2022-11-16T14:48:18.508Z,0.79
2022-11-16T14:50:44.747Z,0.88
2022-11-16T14:53:10.981Z,0.91
2022-11-16T14:55:37.212Z,0.97
2022-11-16T14:58:03.438Z,0.83
2022-11-16T15:00:29.689Z,0.80
2022-11-16T15:03:02.134Z,0.77
2022-11-16T15:05:28.964Z,0.76
2022-11-16T15:07:55.213Z,0.81
2022-11-16T15:10:21.457Z,0.75
2022-11-16T15:12:47.702Z,0.81
2022-11-16T15:15:13.937Z,0.75
2022-11-16T15:17:40.170Z,0.87
2022-11-16T15:20:06.498Z,0.74
2022-11-16T15:22:33.839Z,1.01
2022-11-16T15:25:00.081Z,1.02
2022-11-16T15:27:26.332Z,0.95
2022-11-16T15:29:52.588Z,1.01
2022-11-16T15:32:18.838Z,0.84
2022-11-16T15:34:45.069Z,0.93
2022-11-16T15:37:11.305Z,0.82
2022-11-16T15:39:37.562Z,0.93
2022-11-16T15:42:04.456Z,0.95
2022-11-16T15:44:30.792Z,0.83
2022-11-16T15:46:57.029Z,0.93
2022-11-16T15:49:23.300Z,0.93
2022-11-16T15:51:49.542Z,0.89
2022-11-16T15:54:15.774Z,0.98
2022-11-16T15:56:42.066Z,0.90
2022-11-16T15:59:08.307Z,0.86
2022-11-16T16:01:34.583Z,1.11
2022-11-16T16:04:00.903Z,1.50
2022-11-16T16:06:27.261Z,1.26
2022-11-16T16:08:53.505Z,1.33
2022-11-16T16:11:23.969Z,1.42
2022-11-16T16:13:52.802Z,1.04
2022-11-16T16:16:19.048Z,1.07
2022-11-16T16:18:45.293Z,0.91
2022-11-16T16:21:11.531Z,1.04
2022-11-16T16:23:37.784Z,1.08
2022-11-16T16:26:04.014Z,1.00
2022-11-16T16:28:30.277Z,1.18
2022-11-16T16:30:56.530Z,1.21
2022-11-16T16:33:22.764Z,1.18
2022-11-16T16:35:49.012Z,1.35
2022-11-16T16:38:15.257Z,0.90
2022-11-16T16:40:41.502Z,1.07
2022-11-16T16:43:07.748Z,0.91
2022-11-16T16:45:34.082Z,0.86
2022-11-16T16:48:00.319Z,0.76
2022-11-16T16:50:26.556Z,0.85
2022-11-16T16:52:52.800Z,0.81
2022-11-16T16:55:19.032Z,1.28
2022-11-16T16:57:45.292Z,1.69
2022-11-16T17:00:11.522Z,1.38
2022-11-16T17:02:37.760Z,1.38
2022-11-16T17:05:04.011Z,2.32
2022-11-16T17:07:30.312Z,2.60
2022-11-16T17:09:56.616Z,1.60
2022-11-16T17:12:22.846Z,1.27
2022-11-16T17:14:49.087Z,1.11
2022-11-16T17:17:15.325Z,1.10
2022-11-16T17:19:41.553Z,1.01
2022-11-16T17:22:07.780Z,1.04
2022-11-16T17:24:34.023Z,0.99
2022-11-16T17:27:00.272Z,1.03
2022-11-16T17:29:26.517Z,0.96
2022-11-16T17:31:52.748Z,0.90
2022-11-16T17:34:18.998Z,0.98
2022-11-16T17:36:45.236Z,0.97
2022-11-16T17:39:11.462Z,0.99
2022-11-16T17:41:37.695Z,0.98
2022-11-16T17:44:03.935Z,1.01
2022-11-16T17:46:30.172Z,0.91
2022-11-16T17:48:56.419Z,1.07
2022-11-16T17:51:22.668Z,1.15
2022-11-16T17:53:48.905Z,1.10
2022-11-16T17:56:15.151Z,0.84
2022-11-16T17:58:41.381Z,1.97
2022-11-16T18:01:07.679Z,30.60
2022-11-16T18:03:34.186Z,29.68
2022-11-16T18:06:00.652Z,3.42
2022-11-16T18:08:26.908Z,5.05
2022-11-16T18:10:53.142Z,9.50
2022-11-16T18:13:19.465Z,13.18
2022-11-16T18:15:45.711Z,22.23
2022-11-16T18:18:11.966Z,16.66
2022-11-16T18:20:38.216Z,14.45
2022-11-16T18:23:04.469Z,18.44
2022-11-16T18:25:30.731Z,23.37
2022-11-16T18:27:56.978Z,26.33
2022-11-16T18:30:23.229Z,25.10
2022-11-16T18:32:49.489Z,10.02
2022-11-16T18:35:15.744Z,8.89
2022-11-16T18:37:41.996Z,10.47
2022-11-16T18:40:08.242Z,11.39
2022-11-16T18:42:34.499Z,19.13
2022-11-16T18:45:00.739Z,25.75
2022-11-16T18:47:26.989Z,10.80
2022-11-16T18:49:53.230Z,10.55
2022-11-16T18:52:19.474Z,7.45
2022-11-16T18:54:45.743Z,13.64
2022-11-16T18:57:11.983Z,10.83
2022-11-16T18:59:38.221Z,10.70
2022-11-16T19:02:04.476Z,18.82
2022-11-16T19:04:30.740Z,9.57
2022-11-16T19:06:57.078Z,13.34
2022-11-16T19:09:23.363Z,11.63
2022-11-16T19:11:49.607Z,9.13
2022-11-16T19:14:15.842Z,10.72
2022-11-16T19:16:49.992Z,12.94
2022-11-16T19:19:18.927Z,8.86
2022-11-16T19:21:45.193Z,5.61
2022-11-16T19:24:11.426Z,6.39
2022-11-16T19:26:37.664Z,6.37
2022-11-16T19:29:03.899Z,7.98
2022-11-16T19:31:30.145Z,16.94
2022-11-16T19:33:56.388Z,54.44
2022-11-16T19:36:22.644Z,47.11
2022-11-16T19:38:48.870Z,6.21
2022-11-16T19:41:15.106Z,5.76
2022-11-16T19:43:41.343Z,4.40
2022-11-16T19:46:07.588Z,3.95
2022-11-16T19:48:33.825Z,1.79
2022-11-16T19:51:00.081Z,1.64
2022-11-16T19:53:26.323Z,1.57
2022-11-16T19:55:52.569Z,1.61
2022-11-16T19:58:18.807Z,1.63
2022-11-16T20:00:45.086Z,2.11
2022-11-16T20:03:11.348Z,2.63
2022-11-16T20:05:37.586Z,6.71
2022-11-16T20:08:03.836Z,11.00
2022-11-16T20:10:30.087Z,11.07
2022-11-16T20:12:56.340Z,14.48
2022-11-16T20:15:22.585Z,15.15
2022-11-16T20:17:48.849Z,13.63
2022-11-16T20:20:15.095Z,7.98
2022-11-16T20:22:41.348Z,15.01
2022-11-16T20:25:07.592Z,5.52
2022-11-16T20:27:33.840Z,3.63
2022-11-16T20:30:03.737Z,7.10
2022-11-16T20:32:32.770Z,7.08
2022-11-16T20:34:59.005Z,5.20
2022-11-16T20:37:25.251Z,3.24
2022-11-16T20:39:51.492Z,2.63
2022-11-16T20:42:17.726Z,1.99
2022-11-16T20:44:43.980Z,2.39
2022-11-16T20:47:10.228Z,2.94
2022-11-16T20:49:36.476Z,4.42
2022-11-16T20:52:02.726Z,6.41
2022-11-16T20:54:28.967Z,7.37
2022-11-16T20:56:55.216Z,6.71
2022-11-16T20:59:21.461Z,5.56
2022-11-16T21:01:47.844Z,4.74
2022-11-16T21:04:14.234Z,9.14
2022-11-16T21:06:40.467Z,4.79
2022-11-16T21:09:06.696Z,2.79
2022-11-16T21:11:32.934Z,2.86
2022-11-16T21:13:59.176Z,3.08
2022-11-16T21:16:25.416Z,5.05
2022-11-16T21:18:51.648Z,5.01
2022-11-16T21:21:17.885Z,4.19
2022-11-16T21:23:44.111Z,8.63
2022-11-16T21:26:10.343Z,8.25
2022-11-16T21:28:36.588Z,3.24
2022-11-16T21:31:02.845Z,2.62
2022-11-16T21:33:29.112Z,4.02
2022-11-16T21:35:55.351Z,5.63
2022-11-16T21:38:21.589Z,4.73
2022-11-16T21:40:47.841Z,6.25
2022-11-16T21:43:14.180Z,5.27
2022-11-16T21:45:40.419Z,5.76
2022-11-16T21:48:06.646Z,7.15
2022-11-16T21:50:32.892Z,7.72
2022-11-16T21:52:59.145Z,23.45
2022-11-16T21:55:25.415Z,13.18
2022-11-16T21:57:51.664Z,2.69
2022-11-16T22:00:17.901Z,3.00
2022-11-16T22:02:44.141Z,2.28
2022-11-16T22:05:10.391Z,2.21
2022-11-16T22:07:36.773Z,2.55
2022-11-16T22:10:03.148Z,2.14
2022-11-16T22:12:29.394Z,2.07
2022-11-16T22:14:55.626Z,2.30
2022-11-16T22:17:21.882Z,3.03
2022-11-16T22:19:48.113Z,5.20
2022-11-16T22:22:14.346Z,12.05
2022-11-16T22:24:40.735Z,7.80
2022-11-16T22:27:07.222Z,16.37
2022-11-16T22:29:33.460Z,25.08
2022-11-16T22:31:59.720Z,20.75
2022-11-16T22:34:26.059Z,11.19
2022-11-16T22:36:52.294Z,8.20
2022-11-16T22:39:18.540Z,7.06
2022-11-16T22:41:44.797Z,6.09
2022-11-16T22:44:11.026Z,3.66
2022-11-16T22:46:37.265Z,3.48
2022-11-16T22:49:03.502Z,2.70
2022-11-16T22:51:29.796Z,3.40
2022-11-16T22:53:56.037Z,2.38
2022-11-16T22:56:22.354Z,2.49
2022-11-16T22:58:48.591Z,2.60
2022-11-16T23:01:14.826Z,2.61
2022-11-16T23:03:41.333Z,2.72
2022-11-16T23:06:07.737Z,5.54
2022-11-16T23:08:33.967Z,3.22
2022-11-16T23:11:00.203Z,2.90
2022-11-16T23:13:26.446Z,3.51
2022-11-16T23:15:52.696Z,3.83
2022-11-16T23:18:18.934Z,5.09
2022-11-16T23:20:45.169Z,12.63
2022-11-16T23:23:11.421Z,14.83
2022-11-16T23:25:37.654Z,6.58
2022-11-16T23:28:03.882Z,2.51
2022-11-16T23:30:30.134Z,2.29
2022-11-16T23:32:56.361Z,2.06
2022-11-16T23:35:22.606Z,2.16
2022-11-16T23:37:48.847Z,1.96
2022-11-16T23:40:15.109Z,1.60
2022-11-16T23:42:41.370Z,1.52
2022-11-16T23:45:07.606Z,1.42
2022-11-16T23:47:33.839Z,1.23
2022-11-16T23:50:00.100Z,1.39
2022-11-16T23:52:26.340Z,1.59
2022-11-16T23:54:52.578Z,1.36
2022-11-16T23:57:18.807Z,1.30
2022-11-16T23:59:45.042Z,1.23
